• Join FlightAware (Why Join?)
  • Login
  • US Flag GB Flag 
00:58 EST


 

Airport Tracker/Info


-or-


 

Live Flight TrackerFlight Track Log ✈ N700YN ✈ 29-Oct-2013 ✈ KFCM - 4G4

Flight Track Log - Related Links

Times and Time Zones

All times are in EDT time to prevent confusion due to time zone crossing. See the N700YN flight status page for this flight to view local times or setup timezone preferences in your user account.

Time Position Orientation Groundspeed Altitude Reporting Facility
EDT Latitude Longitude Course Direction KTS MPH feet Rate Location/Type
12:57 44.8000 -93.4167 200° South 125 144 2,500  Level Minneapolis TRACON
12:58 44.7667 -93.4333 200° South 128 147 3,000 336 Climbing Minneapolis TRACON
12:59 44.7350 -93.4200 163° South 154 177 3,100  Climbing Minneapolis Center
13:00 44.7150 -93.3492 112° Southeast 199 229 3,000 629 Descending Minneapolis Center
13:01 44.6947 -93.2644 109° East 192 221 4,400 1,355 Climbing Minneapolis Center
13:02 44.6839 -93.2039 104° East 167 192 5,800 1,210 Climbing Minneapolis Center
13:03 44.6714 -93.1397 105° East 172 198 6,900 1,161 Climbing Minneapolis Center
13:04 44.6647 -93.0664 97° East 191 220 8,200 1,210 Climbing Minneapolis Center
13:05 44.6533 -92.9756 100° East 198 228 9,400 1,152 Climbing Minneapolis Center
13:06 44.6419 -92.8928 101° East 213 245 10,600 1,152 Climbing Minneapolis Center
13:07 44.6267 -92.8153 105° East 209 241 11,800 1,161 Climbing Minneapolis Center
13:08 44.5997 -92.7408 117° Southeast 212 244 13,000 1,065 Climbing Minneapolis Center
13:09 44.5750 -92.6639 114° Southeast 218 251 14,000 1,113 Climbing Minneapolis Center
13:10 44.5433 -92.5711 116° Southeast 221 254 15,300 1,161 Climbing Minneapolis Center
13:11 44.5153 -92.4931 117° Southeast 225 259 16,400 968 Climbing Minneapolis Center
13:12 44.4897 -92.4142 114° Southeast 223 257 17,300 871 Climbing Minneapolis Center
13:13 44.4636 -92.3319 114° Southeast 231 266 18,200 871 Climbing Minneapolis Center
13:14 44.4350 -92.2506 116° Southeast 235 270 19,100 968 Climbing Minneapolis Center
13:15 44.4058 -92.1622 115° Southeast 246 283 20,200 1,113 Climbing Minneapolis Center
13:16 44.3697 -92.0567 116° Southeast 252 290 21,400 968 Climbing Minneapolis Center
13:17 44.3375 -91.9658 116° Southeast 259 298 22,200 816 Climbing Minneapolis Center
13:18 44.3039 -91.8703 116° Southeast 269 310 23,100 864 Climbing Minneapolis Center
13:19 44.2714 -91.7733 115° Southeast 274 315 24,000 774 Climbing Minneapolis Center
13:20 44.2367 -91.6728 116° Southeast 284 327 24,700 677 Climbing Minneapolis Center
13:21 44.2017 -91.5711 116° Southeast 290 334 25,400 823 Climbing Minneapolis Center
13:22 44.1572 -91.4472 117° Southeast 296 341 26,400 774 Climbing Minneapolis Center
13:24 44.1217 -91.3447 116° Southeast 296 341 27,000 290 Climbing Minneapolis Center
13:25 44.0869 -91.2453 116° Southeast 302 348 27,000  Level Minneapolis Center
13:26 44.0475 -91.1325 116° Southeast 318 366 27,000  Level Minneapolis Center
13:27 43.9972 -90.9914 116° Southeast 335 386 27,000  Level Minneapolis Center
13:28 43.9550 -90.8703 116° Southeast 348 400 27,000  Level Minneapolis Center
13:29 43.9128 -90.7519 116° Southeast 344 396 27,000  Level Minneapolis Center
13:30 43.8706 -90.6339 116° Southeast 343 395 27,000  Level Minneapolis Center
13:30 43.8444 -90.5669 118° Southeast 343 395 27,000  Level Chicago Center
13:31 43.8017 -90.4497 117° Southeast 343 395 27,000  Level Chicago Center
13:32 43.7508 -90.3081 116° Southeast 344 396 27,000  Level Chicago Center
13:33 43.7081 -90.1900 117° Southeast 345 397 27,000  Level Chicago Center
13:34 43.6642 -90.0714 117° Southeast 348 400 27,000  Level Chicago Center
13:36 43.6211 -89.9528 117° Southeast 348 400 27,000  Level Chicago Center
13:37 43.5769 -89.8347 117° Southeast 348 400 27,000  Level Chicago Center
13:38 43.5372 -89.6858 110° East 354 407 27,000  Level Chicago Center
13:39 43.5181 -89.5536 101° East 354 407 27,000  Level Chicago Center
13:40 43.4992 -89.4233 101° East 352 405 27,000  Level Chicago Center
13:41 43.4794 -89.2914 102° East 352 405 27,000  Level Chicago Center
13:42 43.4550 -89.1586 104° East 356 410 27,000  Level Chicago Center
13:43 43.4253 -88.9953 104° East 365 420 27,000  Level Chicago Center
13:44 43.4047 -88.8633 102° East 357 411 27,000  Level Chicago Center
13:45 43.3803 -88.7192 103° East 359 413 27,000  Level Chicago Center
13:46 43.3572 -88.5864 103° East 359 413 27,000  Level Chicago Center
13:47 43.3361 -88.4597 103° East 362 417 27,000  Level Chicago Center
13:48 43.3133 -88.3272 103° East 360 414 27,000  Level Chicago Center
13:49 43.2850 -88.1689 104° East 357 411 27,000  Level Chicago Center
13:50 43.2628 -88.0356 103° East 360 414 27,000  Level Chicago Center
13:51 43.2400 -87.9036 103° East 359 413 27,000  Level Chicago Center
13:52 43.2156 -87.7711 104° East 359 413 27,000  Level Chicago Center
13:53 43.1925 -87.6386 103° East 360 414 27,000  Level Chicago Center
13:54 43.1689 -87.5047 104° East 362 417 27,000  Level Chicago Center
13:55 43.1392 -87.3450 104° East 362 417 27,000  Level Chicago Center
13:56 43.1156 -87.2136 104° East 358 412 27,000  Level Chicago Center
13:57 43.0922 -87.0806 103° East 362 417 27,000  Level Chicago Center
13:58 43.0667 -86.9481 105° East 362 417 27,000  Level Chicago Center
13:59 43.0419 -86.8144 104° East 362 417 27,000  Level Chicago Center
14:00 43.0128 -86.6558 104° East 360 414 27,000  Level Chicago Center
14:01 42.9872 -86.5244 105° East 361 415 27,000  Level Chicago Center
14:02 42.9622 -86.3922 104° East 362 417 27,000  Level Chicago Center
14:03 42.9369 -86.2603 105° East 362 417 27,000  Level Chicago Center
14:05 42.9114 -86.1286 105° East 364 419 27,000  Level Chicago Center
14:06 42.8806 -85.9711 105° East 366 421 27,000  Level Chicago Center
14:07 42.8547 -85.8383 105° East 368 423 27,000  Level Chicago Center
14:08 42.8289 -85.7053 105° East 368 423 27,000  Level Chicago Center
14:09 42.8019 -85.5717 105° East 367 422 27,000  Level Chicago Center
14:10 42.7567 -85.4175 112° Southeast 366 421 27,000  Level Chicago Center
14:11 42.7061 -85.2967 120° Southeast 368 423 27,000  Level Chicago Center
14:12 42.6569 -85.1767 119° Southeast 365 420 27,000  Level Chicago Center
14:13 42.6078 -85.0550 119° Southeast 367 422 27,000  Level Chicago Center
14:14 42.5572 -84.9339 120° Southeast 368 423 27,000  Level Chicago Center
14:15 42.5078 -84.8125 119° Southeast 367 422 27,000  Level Chicago Center
14:16 42.4472 -84.6678 120° Southeast 368 423 27,000  Level Chicago Center
14:17 42.3969 -84.5472 119° Southeast 369 425 27,000  Level Chicago Center
14:18 42.3478 -84.4278 119° Southeast 367 422 27,000  Level Chicago Center
14:19 42.2978 -84.3083 119° Southeast 366 421 27,000  Level Chicago Center
14:20 42.2469 -84.1892 120° Southeast 367 422 27,000  Level Chicago Center
14:21 42.1958 -84.0708 120° Southeast 367 422 27,000 -192 Level Chicago Center
14:22 42.1356 -83.9269 119° Southeast 369 425 26,600 -629 Descending Chicago Center
14:23 42.0819 -83.8075 121° Southeast 374 430 25,700 -919 Descending Chicago Center
14:24 42.0331 -83.6906 119° Southeast 364 419 24,700 -699 Descending Chicago Center
14:26 41.9664 -83.5367 120° Southeast 342 394 24,000 -329 Descending Cleveland Center
14:27 41.9206 -83.4339 121° Southeast 322 371 23,900 -532 Descending Cleveland Center
14:28 41.8744 -83.3250 120° Southeast 328 377 22,900 -919 Descending Cleveland Center
14:29 41.8278 -83.2181 120° Southeast 335 386 22,000 -871 Descending Cleveland Center
14:30 41.7697 -83.0858 120° Southeast 342 394 21,100 -484 Descending Cleveland Center
14:31 41.7256 -82.9822 120° Southeast 324 373 21,000 -48 Descending Cleveland Center
14:32 41.6831 -82.8881 121° Southeast 302 348 21,000  Level Cleveland Center
14:33 41.6408 -82.7900 120° Southeast 300 345 21,000  Level Cleveland Center
14:34 41.5961 -82.6936 122° Southeast 302 348 21,000  Level Cleveland Center
14:35 41.5525 -82.5933 120° Southeast 308 354 21,000  Level Cleveland Center
14:36 41.4992 -82.4756 121° Southeast 314 361 21,000  Level Cleveland Center
14:37 41.4536 -82.3728 121° Southeast 318 366 21,000 -194 Level Cleveland Center
14:38 41.4083 -82.2714 121° Southeast 318 366 20,600 -677 Descending Cleveland Center
14:39 41.3600 -82.1661 121° Southeast 328 377 19,600 -1,065 Descending Cleveland Center
14:40 41.3272 -82.0422 109° East 340 391 18,400 -1,016 Descending Cleveland Center
14:41 41.2961 -81.9261 110° East 334 384 17,500 -1,016 Descending Cleveland Center
14:42 41.2667 -81.8114 109° East 330 380 16,300 -1,161 Descending Cleveland Center
14:43 41.2367 -81.6994 110° East 323 372 15,100 -1,258 Descending Cleveland Center
14:44 41.2022 -81.5681 109° East 315 362 13,700 -1,016 Descending Cleveland Center
14:45 41.1736 -81.4614 110° East 309 356 13,000 -823 Descending Cleveland Center
14:46 41.1486 -81.3686 110° East 295 339 12,000 -1,161 Descending Cleveland Center
14:47 41.1156 -81.2450 110° East 302 348 10,600 -1,296 Descending Cleveland Center
14:48 41.0878 -81.1450 110° East 289 333 9,300 -768 Descending Cleveland Center
14:49 41.0656 -81.0600 109° East 247 284 9,000 -823 Descending Cleveland Center
14:50 41.0425 -80.9725 109° East 233 268 7,600 -1,113 Descending Cleveland Center
14:51 41.0228 -80.9008 110° East 235 270 6,700 677 Descending Cleveland Center
14:52 40.8644 -80.8306 161° South 430 495 9,000 1,113 Climbing Cleveland Center
14:54 40.3486 -80.8178 179° South 751 864 9,000  Level Cleveland Center